Time;durP1;ratioP1;P1;durP2;ratioP2;P2;SDS_P1;SDS_P2;PMS_P1;PMS_P2;Temp;Humidity;BMP_temperature;BMP_pressure;BME280_temperature;BME280_humidity;BME280_pressure;Samples;Min_cycle;Max_cycle;Signal;HPM_P1;HPM_P2
2023/02/22 00:02:09;;;;;;;28.87;18.10;;;;;;;;;;5086043;28;20179;-52
2023/02/22 00:04:38;;;;;;;27.40;18.10;;;;;;;;;;5083736;28;20198;-53
2023/02/22 00:07:04;;;;;;;30.93;17.80;;;;;;;;;;5083002;28;20719;-52
2023/02/22 00:09:30;;;;;;;32.10;18.83;;;;;;;;;;5086691;28;20180;-52
2023/02/22 00:15:00;;;;;;;28.60;18.37;;;;;;;;;;5089264;28;20606;-52
2023/02/22 00:17:26;;;;;;;26.93;16.97;;;;;;;;;;5085959;28;20180;-52
2023/02/22 00:19:53;;;;;;;30.53;18.33;;;;;;;;;;5081877;28;20817;-52
2023/02/22 00:22:19;;;;;;;29.03;17.50;;;;;;;;;;5082935;28;20215;-52
2023/02/22 00:24:45;;;;;;;27.93;17.03;;;;;;;;;;5083706;28;20184;-52
2023/02/22 00:27:11;;;;;;;27.80;17.43;;;;;;;;;;5080840;28;20663;-51
2023/02/22 00:29:37;;;;;;;30.23;17.17;;;;;;;;;;5083379;28;20196;-53
2023/02/22 00:32:04;;;;;;;28.07;16.87;;;;;;;;;;5081376;28;20674;-52
2023/02/22 00:34:30;;;;;;;27.07;17.67;;;;;;;;;;5085646;28;20204;-52
2023/02/22 00:36:56;;;;;;;29.13;17.80;;;;;;;;;;5082504;28;20237;-52
2023/02/22 00:39:22;;;;;;;27.90;16.47;;;;;;;;;;5082175;28;20184;-52
2023/02/22 00:41:48;;;;;;;25.60;15.57;;;;;;;;;;5080134;28;20524;-53
2023/02/22 00:44:14;;;;;;;27.33;17.63;;;;;;;;;;5079892;28;20271;-52
2023/02/22 00:46:40;;;;;;;26.53;15.77;;;;;;;;;;5081480;28;20651;-52
2023/02/22 00:49:06;;;;;;;27.97;16.73;;;;;;;;;;5088197;28;20941;-52
2023/02/22 00:51:32;;;;;;;28.83;18.10;;;;;;;;;;5085775;28;20502;-52
2023/02/22 00:53:58;;;;;;;27.23;16.93;;;;;;;;;;5078037;28;20673;-52
2023/02/22 00:56:24;;;;;;;26.77;16.63;;;;;;;;;;5082894;28;20662;-52
2023/02/22 00:58:50;;;;;;;25.93;16.23;;;;;;;;;;5081567;28;20172;-52
2023/02/22 01:01:16;;;;;;;27.43;17.17;;;;;;;;;;5080704;28;20533;-51
2023/02/22 01:03:43;;;;;;;25.80;16.23;;;;;;;;;;5074931;28;20180;-52
2023/02/22 01:06:09;;;;;;;24.10;16.80;;;;;;;;;;5082822;28;20194;-52
2023/02/22 01:08:35;;;;;;;24.87;16.03;;;;;;;;;;5086223;28;20176;-52
2023/02/22 01:11:01;;;;;;;27.60;17.80;;;;;;;;;;5079488;28;24091;-53
2023/02/22 01:13:27;;;;;;;27.53;16.23;;;;;;;;;;5079841;28;20622;-53
2023/02/22 01:15:55;;;;;;;25.50;16.00;;;;;;;;;;5082135;28;20196;-52
2023/02/22 01:18:22;;;;;;;25.73;15.20;;;;;;;;;;5082554;28;20271;-52
2023/02/22 01:20:48;;;;;;;25.73;15.63;;;;;;;;;;5075148;28;20228;-52
2023/02/22 01:23:16;;;;;;;25.67;16.67;;;;;;;;;;5084080;28;20214;-52
2023/02/22 01:25:42;;;;;;;23.97;15.17;;;;;;;;;;5077746;28;20210;-53
2023/02/22 01:28:08;;;;;;;24.40;15.70;;;;;;;;;;5080388;28;20680;-52
2023/02/22 01:30:35;;;;;;;26.23;15.63;;;;;;;;;;5081225;28;20213;-52
2023/02/22 01:33:03;;;;;;;28.80;16.63;;;;;;;;;;5081896;28;20184;-52
2023/02/22 01:35:30;;;;;;;26.00;16.90;;;;;;;;;;5081335;28;20675;-51
2023/02/22 01:37:57;;;;;;;25.13;16.23;;;;;;;;;;5082206;28;20622;-52
2023/02/22 01:40:34;;;;;;;24.10;15.27;;;;;;;;;;5085151;28;20167;-53
2023/02/22 01:43:01;;;;;;;23.67;16.77;;;;;;;;;;5077584;28;20190;-51
2023/02/22 01:45:33;;;;;;;24.37;15.50;;;;;;;;;;5081460;28;20184;-52
2023/02/22 01:48:07;;;;;;;24.57;15.13;;;;;;;;;;5077226;28;20267;-52
2023/02/22 01:50:36;;;;;;;26.73;15.93;;;;;;;;;;5078112;28;20180;-52
2023/02/22 01:53:03;;;;;;;26.43;15.37;;;;;;;;;;5084849;28;20552;-52
2023/02/22 01:55:30;;;;;;;22.33;14.93;;;;;;;;;;5084243;28;20226;-52
2023/02/22 01:57:56;;;;;;;21.67;15.13;;;;;;;;;;5081193;28;20230;-51
2023/02/22 02:00:26;;;;;;;25.37;14.83;;;;;;;;;;5079798;28;20187;-52
2023/02/22 02:02:57;;;;;;;25.70;15.17;;;;;;;;;;5080578;28;20184;-52
2023/02/22 02:08:30;;;;;;;26.30;15.47;;;;;;;;;;5087753;22;20234;-85
2023/02/22 02:10:57;;;;;;;25.60;14.90;;;;;;;;;;5082220;28;20188;-85
2023/02/22 02:13:24;;;;;;;23.67;15.07;;;;;;;;;;5060098;28;20173;-86
2023/02/22 02:18:54;;;;;;;24.27;15.57;;;;;;;;;;5087460;28;20710;-86
2023/02/22 02:21:39;;;;;;;21.13;13.83;;;;;;;;;;5092159;28;20168;-86
2023/02/22 02:24:11;;;;;;;21.53;14.17;;;;;;;;;;5091357;28;20630;-86
2023/02/22 02:26:57;;;;;;;20.67;13.87;;;;;;;;;;5090828;28;20180;-86
2023/02/22 02:29:42;;;;;;;20.30;13.63;;;;;;;;;;5072915;28;20214;-86
2023/02/22 02:32:27;;;;;;;24.83;14.43;;;;;;;;;;5079596;28;20730;-86
2023/02/22 02:34:56;;;;;;;21.47;13.57;;;;;;;;;;5083717;28;20223;-85
2023/02/22 02:37:25;;;;;;;19.63;13.37;;;;;;;;;;5069984;28;20173;-86
2023/02/22 02:40:11;;;;;;;20.67;13.80;;;;;;;;;;5080847;28;20177;-86
2023/02/22 02:42:50;;;;;;;22.40;14.10;;;;;;;;;;5087239;28;20233;-86
2023/02/22 02:45:23;;;;;;;19.07;13.30;;;;;;;;;;5092078;28;20191;-86
2023/02/22 02:47:53;;;;;;;21.10;14.23;;;;;;;;;;5089193;28;20187;-85
2023/02/22 02:50:22;;;;;;;19.07;13.53;;;;;;;;;;5093072;28;20186;-85
2023/02/22 02:52:48;;;;;;;20.03;13.20;;;;;;;;;;5094102;28;20172;-86
2023/02/22 02:55:16;;;;;;;19.27;13.50;;;;;;;;;;5088663;28;20201;-86
2023/02/22 02:57:42;;;;;;;19.23;13.20;;;;;;;;;;5095643;28;20176;-86
2023/02/22 03:00:21;;;;;;;17.23;12.27;;;;;;;;;;5092867;28;20180;-85
2023/02/22 03:02:47;;;;;;;17.53;11.80;;;;;;;;;;5088253;28;20497;-85
2023/02/22 03:05:13;;;;;;;18.43;11.97;;;;;;;;;;5092866;28;20200;-86
2023/02/22 03:07:50;;;;;;;16.67;11.80;;;;;;;;;;5092510;28;20195;-86
2023/02/22 03:10:26;;;;;;;17.53;12.13;;;;;;;;;;5087447;28;20268;-85
2023/02/22 03:13:10;;;;;;;21.70;12.23;;;;;;;;;;5085940;28;20602;-86
2023/02/22 03:15:55;;;;;;;19.37;12.67;;;;;;;;;;5086810;28;20207;-86
2023/02/22 03:18:28;;;;;;;20.80;12.13;;;;;;;;;;5090536;28;20599;-86
2023/02/22 03:21:15;;;;;;;18.37;11.80;;;;;;;;;;5088608;28;20180;-86
2023/02/22 03:23:41;;;;;;;17.33;12.43;;;;;;;;;;5081975;28;20184;-86
2023/02/22 03:26:10;;;;;;;18.73;12.33;;;;;;;;;;5090831;28;20175;-86
2023/02/22 03:28:39;;;;;;;16.93;11.80;;;;;;;;;;5086069;28;20179;-86
2023/02/22 03:31:09;;;;;;;14.97;11.00;;;;;;;;;;5087314;28;20187;-86
2023/02/22 03:34:02;;;;;;;16.90;11.60;;;;;;;;;;5087770;28;20270;-87
2023/02/22 03:36:30;;;;;;;18.03;11.17;;;;;;;;;;5079092;28;20539;-86
2023/02/22 03:38:57;;;;;;;15.97;10.17;;;;;;;;;;5085782;28;20694;-86
2023/02/22 03:41:24;;;;;;;16.00;11.27;;;;;;;;;;5084368;28;20180;-86
2023/02/22 03:43:53;;;;;;;16.93;12.10;;;;;;;;;;5084681;28;20180;-86
2023/02/22 03:46:20;;;;;;;16.07;11.40;;;;;;;;;;5088773;28;20641;-86
2023/02/22 03:48:50;;;;;;;16.73;11.87;;;;;;;;;;5084095;28;20225;-87
2023/02/22 03:51:16;;;;;;;15.03;10.80;;;;;;;;;;5092201;28;20626;-86
2023/02/22 03:53:49;;;;;;;18.83;11.70;;;;;;;;;;5088913;28;20694;-86
2023/02/22 03:56:20;;;;;;;14.33;10.63;;;;;;;;;;5088538;28;20180;-85
2023/02/22 03:58:47;;;;;;;14.90;10.93;;;;;;;;;;5092625;28;20186;-85
2023/02/22 04:01:14;;;;;;;15.43;11.40;;;;;;;;;;5085850;28;20479;-86
2023/02/22 04:03:41;;;;;;;16.07;10.23;;;;;;;;;;5091844;28;20192;-86
2023/02/22 04:06:07;;;;;;;13.40;10.00;;;;;;;;;;5087371;28;20355;-86
2023/02/22 04:08:34;;;;;;;15.57;11.20;;;;;;;;;;5082709;28;20235;-86
2023/02/22 04:11:00;;;;;;;15.10;9.87;;;;;;;;;;5078146;28;20262;-86
2023/02/22 04:13:26;;;;;;;14.57;10.40;;;;;;;;;;5090717;28;20214;-86
2023/02/22 04:15:52;;;;;;;13.50;9.87;;;;;;;;;;5090774;28;20203;-86
2023/02/22 04:18:19;;;;;;;14.10;10.07;;;;;;;;;;5089991;28;20164;-86
2023/02/22 04:20:45;;;;;;;12.37;9.37;;;;;;;;;;5091428;28;20207;-86
2023/02/22 04:23:11;;;;;;;12.57;10.13;;;;;;;;;;5072618;28;20257;-86
2023/02/22 04:25:37;;;;;;;15.20;9.50;;;;;;;;;;5090824;28;20182;-86
2023/02/22 04:28:03;;;;;;;12.37;9.90;;;;;;;;;;5090398;28;20187;-86
2023/02/22 04:30:29;;;;;;;14.13;9.27;;;;;;;;;;5089166;28;20653;-86
2023/02/22 04:32:56;;;;;;;13.30;9.30;;;;;;;;;;5088476;28;20559;-86
2023/02/22 04:35:22;;;;;;;12.10;8.90;;;;;;;;;;5089001;28;20195;-85
2023/02/22 04:37:48;;;;;;;10.53;7.83;;;;;;;;;;5076776;28;20173;-86
2023/02/22 04:40:16;;;;;;;12.03;9.40;;;;;;;;;;5088252;28;20258;-86
2023/02/22 04:42:42;;;;;;;12.27;9.30;;;;;;;;;;5078479;28;20184;-86
2023/02/22 04:45:10;;;;;;;12.67;9.13;;;;;;;;;;5089187;28;20184;-85
2023/02/22 04:47:36;;;;;;;11.17;8.70;;;;;;;;;;5086475;28;20568;-86
2023/02/22 04:50:04;;;;;;;11.50;8.57;;;;;;;;;;5090952;28;20183;-86
2023/02/22 04:52:30;;;;;;;11.90;9.03;;;;;;;;;;5090308;28;20540;-86
2023/02/22 04:54:56;;;;;;;12.10;8.73;;;;;;;;;;5089194;28;20226;-86
2023/02/22 04:57:22;;;;;;;11.87;8.90;;;;;;;;;;5070199;28;20180;-86
2023/02/22 04:59:49;;;;;;;12.73;9.10;;;;;;;;;;5088582;28;20179;-86
2023/02/22 05:02:16;;;;;;;12.37;8.93;;;;;;;;;;5093972;28;20180;-86
2023/02/22 05:04:42;;;;;;;14.17;9.40;;;;;;;;;;5088522;28;20235;-85
2023/02/22 05:07:08;;;;;;;11.10;8.87;;;;;;;;;;5085516;28;20180;-86
2023/02/22 05:09:34;;;;;;;11.13;8.17;;;;;;;;;;5086070;28;20231;-86
2023/02/22 05:12:00;;;;;;;12.53;8.70;;;;;;;;;;5094101;28;20684;-85
2023/02/22 05:14:26;;;;;;;12.80;9.57;;;;;;;;;;5083931;28;20290;-86
2023/02/22 05:16:54;;;;;;;11.37;8.57;;;;;;;;;;5090951;28;20183;-86
2023/02/22 05:19:20;;;;;;;13.07;9.43;;;;;;;;;;5091028;28;20172;-86
2023/02/22 05:21:46;;;;;;;12.97;9.00;;;;;;;;;;5081577;28;20635;-85
2023/02/22 05:24:12;;;;;;;13.47;9.33;;;;;;;;;;5083676;28;20199;-85
2023/02/22 05:26:39;;;;;;;11.63;8.63;;;;;;;;;;5088395;28;20176;-85
2023/02/22 05:29:05;;;;;;;12.33;9.10;;;;;;;;;;5095220;28;20217;-86
2023/02/22 05:31:31;;;;;;;15.40;9.60;;;;;;;;;;5085178;28;20790;-85
2023/02/22 05:33:57;;;;;;;12.30;8.73;;;;;;;;;;5080392;28;20192;-85
2023/02/22 05:36:24;;;;;;;10.73;7.87;;;;;;;;;;5085646;28;20181;-85
2023/02/22 05:38:50;;;;;;;11.33;8.50;;;;;;;;;;5092881;28;20176;-85
2023/02/22 05:41:16;;;;;;;13.30;9.47;;;;;;;;;;5094172;28;20729;-85
2023/02/22 05:43:42;;;;;;;13.77;9.67;;;;;;;;;;5065164;28;20168;-85
2023/02/22 05:46:08;;;;;;;13.90;9.37;;;;;;;;;;5082618;28;20195;-86
2023/02/22 05:48:35;;;;;;;11.53;8.27;;;;;;;;;;5086890;28;20264;-86
2023/02/22 05:51:02;;;;;;;14.20;9.73;;;;;;;;;;5093100;28;20188;-86
2023/02/22 05:53:28;;;;;;;13.57;10.20;;;;;;;;;;5089805;28;20274;-88
2023/02/22 05:55:54;;;;;;;13.77;9.27;;;;;;;;;;5095715;28;20211;-87
2023/02/22 05:58:21;;;;;;;14.70;8.87;;;;;;;;;;5086723;28;20184;-87
2023/02/22 06:00:47;;;;;;;12.93;9.20;;;;;;;;;;5093039;28;20191;-87
2023/02/22 06:03:13;;;;;;;14.63;9.77;;;;;;;;;;5082827;28;20201;-86
2023/02/22 06:05:39;;;;;;;12.53;9.13;;;;;;;;;;5075378;28;20471;-86
2023/02/22 06:08:06;;;;;;;11.50;8.43;;;;;;;;;;5085731;28;20180;-88
2023/02/22 06:10:32;;;;;;;12.57;9.30;;;;;;;;;;5084687;28;20188;-87
2023/02/22 06:12:58;;;;;;;14.63;9.73;;;;;;;;;;5082234;28;20181;-87
2023/02/22 06:15:26;;;;;;;11.57;8.87;;;;;;;;;;5092715;28;20211;-85
2023/02/22 06:17:53;;;;;;;12.67;9.17;;;;;;;;;;5074221;28;20159;-87
2023/02/22 06:20:20;;;;;;;14.20;10.07;;;;;;;;;;5099902;28;20219;-87
2023/02/22 06:22:47;;;;;;;14.53;9.87;;;;;;;;;;5090705;28;20179;-88
2023/02/22 06:25:14;;;;;;;14.13;9.20;;;;;;;;;;5089265;28;20635;-87
2023/02/22 06:27:40;;;;;;;13.20;9.20;;;;;;;;;;5092536;28;20175;-86
2023/02/22 06:30:06;;;;;;;13.97;9.83;;;;;;;;;;5089657;28;20267;-86
2023/02/22 06:32:33;;;;;;;14.73;9.33;;;;;;;;;;5094688;28;20195;-86
2023/02/22 06:34:59;;;;;;;12.17;9.80;;;;;;;;;;5083184;28;20200;-87
2023/02/22 06:37:25;;;;;;;15.87;10.40;;;;;;;;;;5096013;28;20187;-85
2023/02/22 06:39:51;;;;;;;12.30;9.57;;;;;;;;;;5100276;28;20203;-86
2023/02/22 06:42:17;;;;;;;12.67;9.57;;;;;;;;;;5100923;28;20164;-85
2023/02/22 06:44:43;;;;;;;15.57;9.63;;;;;;;;;;5093177;28;20175;-86
2023/02/22 06:47:09;;;;;;;12.90;9.70;;;;;;;;;;5095023;28;20445;-85
2023/02/22 06:49:35;;;;;;;13.40;9.67;;;;;;;;;;5095980;28;20298;-85
2023/02/22 06:52:03;;;;;;;14.00;10.10;;;;;;;;;;5084591;28;20508;-85
2023/02/22 06:54:29;;;;;;;13.43;9.77;;;;;;;;;;5086445;28;20195;-85
2023/02/22 06:56:55;;;;;;;15.67;10.37;;;;;;;;;;5088659;28;20184;-85
2023/02/22 06:59:22;;;;;;;14.97;10.00;;;;;;;;;;5092477;28;20173;-86
2023/02/22 07:01:48;;;;;;;14.63;9.90;;;;;;;;;;5090140;28;20240;-86
2023/02/22 07:04:15;;;;;;;14.33;9.63;;;;;;;;;;5086651;28;20196;-85
2023/02/22 07:06:47;;;;;;;12.17;9.13;;;;;;;;;;5073045;28;20168;-89
2023/02/22 07:09:14;;;;;;;17.87;11.60;;;;;;;;;;5090622;28;20234;-90
2023/02/22 07:11:40;;;;;;;17.57;12.50;;;;;;;;;;5089372;28;20657;-87
2023/02/22 07:14:06;;;;;;;20.87;12.83;;;;;;;;;;5084103;28;20603;-86
2023/02/22 07:16:32;;;;;;;18.43;11.87;;;;;;;;;;5088044;28;20748;-83
2023/02/22 07:19:01;;;;;;;18.40;11.70;;;;;;;;;;5088167;28;20172;-84
2023/02/22 07:21:28;;;;;;;17.13;12.07;;;;;;;;;;5077087;28;20164;-83
2023/02/22 07:23:55;;;;;;;15.93;10.73;;;;;;;;;;5095529;28;20191;-84
2023/02/22 07:26:22;;;;;;;16.00;11.07;;;;;;;;;;5090978;28;20221;-83
2023/02/22 07:28:48;;;;;;;16.47;11.87;;;;;;;;;;5090780;28;20199;-83
2023/02/22 07:31:15;;;;;;;16.90;11.73;;;;;;;;;;5083509;28;20186;-83
2023/02/22 07:33:41;;;;;;;15.70;10.83;;;;;;;;;;5095334;28;20198;-83
2023/02/22 07:36:08;;;;;;;13.27;9.70;;;;;;;;;;5094596;28;20204;-84
2023/02/22 07:38:34;;;;;;;17.67;11.97;;;;;;;;;;5089492;28;20180;-83
2023/02/22 07:41:00;;;;;;;16.00;11.40;;;;;;;;;;5093436;28;20179;-83
2023/02/22 07:43:27;;;;;;;17.77;11.20;;;;;;;;;;5083147;28;20263;-83
2023/02/22 07:45:55;;;;;;;14.90;10.83;;;;;;;;;;5089892;28;20213;-83
2023/02/22 07:48:21;;;;;;;16.90;10.90;;;;;;;;;;5084519;28;20584;-82
2023/02/22 07:50:48;;;;;;;19.20;12.23;;;;;;;;;;5091514;28;20621;-83
2023/02/22 07:53:18;;;;;;;18.17;12.30;;;;;;;;;;5090285;28;20645;-83
2023/02/22 07:55:44;;;;;;;17.17;11.53;;;;;;;;;;5082395;28;20280;-83
2023/02/22 07:58:13;;;;;;;15.77;12.10;;;;;;;;;;5086634;28;20180;-83
2023/02/22 08:00:40;;;;;;;18.23;12.67;;;;;;;;;;5093905;28;20176;-83
2023/02/22 08:03:07;;;;;;;18.33;11.97;;;;;;;;;;5091303;28;20176;-84
2023/02/22 08:05:34;;;;;;;16.90;11.87;;;;;;;;;;5091379;28;20180;-83
2023/02/22 08:08:01;;;;;;;17.93;12.50;;;;;;;;;;5093930;28;20180;-82
2023/02/22 08:10:27;;;;;;;15.97;11.73;;;;;;;;;;5087803;28;20206;-83
2023/02/22 08:12:53;;;;;;;14.73;11.77;;;;;;;;;;5092236;28;20560;-83
2023/02/22 08:15:23;;;;;;;15.40;11.47;;;;;;;;;;5092781;28;20205;-83
2023/02/22 08:17:49;;;;;;;17.17;12.37;;;;;;;;;;5092493;28;20513;-83
2023/02/22 08:20:15;;;;;;;18.47;12.93;;;;;;;;;;5093145;28;20188;-83
2023/02/22 08:22:44;;;;;;;16.63;12.63;;;;;;;;;;5090257;28;20205;-83
2023/02/22 08:25:10;;;;;;;19.30;12.67;;;;;;;;;;5085309;28;20180;-82
2023/02/22 08:27:36;;;;;;;17.13;12.47;;;;;;;;;;5095522;28;20591;-83
2023/02/22 08:30:02;;;;;;;18.70;14.27;;;;;;;;;;5096112;28;20569;-83
2023/02/22 08:32:28;;;;;;;17.90;13.03;;;;;;;;;;5073466;28;20222;-83
2023/02/22 08:34:54;;;;;;;15.67;13.30;;;;;;;;;;5092440;28;20225;-83
2023/02/22 08:37:20;;;;;;;18.97;13.07;;;;;;;;;;5092078;28;20179;-83
2023/02/22 08:39:46;;;;;;;18.43;11.83;;;;;;;;;;5089709;28;20218;-83
2023/02/22 08:42:12;;;;;;;15.27;12.03;;;;;;;;;;5093151;28;20544;-82
2023/02/22 08:44:39;;;;;;;20.60;12.97;;;;;;;;;;5096691;28;20649;-82
2023/02/22 08:47:05;;;;;;;19.33;14.27;;;;;;;;;;5093718;28;20257;-82
2023/02/22 08:49:31;;;;;;;19.27;13.73;;;;;;;;;;5093082;28;20626;-83
2023/02/22 08:51:57;;;;;;;19.40;12.70;;;;;;;;;;5094686;28;20625;-84
2023/02/22 08:54:24;;;;;;;17.87;13.27;;;;;;;;;;5093482;28;20200;-83
2023/02/22 08:56:50;;;;;;;17.50;12.53;;;;;;;;;;5099661;28;20183;-83
2023/02/22 08:59:16;;;;;;;18.30;12.57;;;;;;;;;;5090179;28;20225;-83
2023/02/22 09:01:42;;;;;;;20.43;14.07;;;;;;;;;;5091018;28;20618;-83
2023/02/22 09:04:08;;;;;;;18.80;13.73;;;;;;;;;;5098878;28;20195;-83
2023/02/22 09:06:34;;;;;;;16.90;12.27;;;;;;;;;;5089419;28;20623;-83
2023/02/22 09:09:01;;;;;;;22.00;14.90;;;;;;;;;;5090686;28;20265;-83
2023/02/22 09:11:27;;;;;;;19.63;14.40;;;;;;;;;;5091808;28;20176;-83
2023/02/22 09:13:53;;;;;;;19.00;15.07;;;;;;;;;;5100161;28;20176;-83
2023/02/22 09:16:19;;;;;;;19.73;14.83;;;;;;;;;;5089664;28;20262;-83
2023/02/22 09:18:46;;;;;;;20.47;15.17;;;;;;;;;;5089807;28;20180;-83
2023/02/22 09:21:12;;;;;;;20.27;15.47;;;;;;;;;;5099322;28;20187;-83
2023/02/22 09:23:40;;;;;;;25.27;14.87;;;;;;;;;;5086506;28;20627;-82
2023/02/22 09:26:07;;;;;;;20.53;14.17;;;;;;;;;;5085983;28;20276;-84
2023/02/22 09:28:33;;;;;;;20.43;14.20;;;;;;;;;;5091219;28;20187;-83
2023/02/22 09:31:00;;;;;;;18.27;13.30;;;;;;;;;;5096632;28;20258;-83
2023/02/22 09:33:26;;;;;;;20.80;13.40;;;;;;;;;;5082305;28;20180;-83
2023/02/22 09:35:52;;;;;;;18.00;13.20;;;;;;;;;;5079846;28;20219;-83
2023/02/22 09:38:21;;;;;;;17.80;13.50;;;;;;;;;;5098651;28;20168;-83
2023/02/22 09:40:53;;;;;;;18.77;13.10;;;;;;;;;;5095803;28;20176;-83
2023/02/22 09:43:39;;;;;;;15.87;12.37;;;;;;;;;;5089820;28;20248;-82
2023/02/22 09:46:05;;;;;;;20.57;12.50;;;;;;;;;;5086835;28;20608;-83
2023/02/22 09:48:33;;;;;;;14.53;11.90;;;;;;;;;;5088140;28;20268;-82
2023/02/22 09:51:02;;;;;;;17.17;12.30;;;;;;;;;;5100918;28;20515;-83
2023/02/22 09:53:34;;;;;;;16.23;12.40;;;;;;;;;;5084940;28;20176;-83
2023/02/22 09:56:05;;;;;;;15.93;11.13;;;;;;;;;;5098649;28;20188;-83
2023/02/22 09:58:37;;;;;;;19.37;11.10;;;;;;;;;;5095332;28;20323;-83
2023/02/22 10:01:13;;;;;;;13.13;10.27;;;;;;;;;;5093788;28;20243;-83
2023/02/22 10:03:48;;;;;;;15.63;10.93;;;;;;;;;;5085724;28;20210;-82
2023/02/22 10:06:16;;;;;;;15.47;11.27;;;;;;;;;;5080497;28;20203;-83
2023/02/22 10:08:46;;;;;;;19.77;10.60;;;;;;;;;;5089349;28;20720;-83
2023/02/22 10:11:18;;;;;;;14.07;11.10;;;;;;;;;;5087255;28;20183;-83
2023/02/22 10:13:50;;;;;;;13.50;10.33;;;;;;;;;;5091607;28;20207;-83
2023/02/22 10:16:29;;;;;;;12.47;9.70;;;;;;;;;;5101265;28;20279;-84
2023/02/22 10:19:09;;;;;;;13.83;9.77;;;;;;;;;;5098594;28;20205;-84
2023/02/22 10:21:38;;;;;;;12.47;9.57;;;;;;;;;;5088031;28;20203;-84
2023/02/22 10:24:25;;;;;;;12.40;9.23;;;;;;;;;;5091009;28;20175;-83
2023/02/22 10:26:52;;;;;;;12.17;9.70;;;;;;;;;;5087323;28;20180;-84
2023/02/22 10:29:20;;;;;;;15.47;11.10;;;;;;;;;;5083893;28;20207;-84
2023/02/22 10:31:50;;;;;;;12.77;9.40;;;;;;;;;;5098520;28;20201;-84
2023/02/22 10:34:18;;;;;;;12.37;9.10;;;;;;;;;;5095858;28;20661;-83
2023/02/22 10:36:46;;;;;;;16.20;9.00;;;;;;;;;;5098435;28;20172;-85
2023/02/22 10:39:17;;;;;;;15.83;9.03;;;;;;;;;;5085653;28;20180;-84
2023/02/22 10:41:49;;;;;;;10.97;7.93;;;;;;;;;;5098504;28;20211;-84
2023/02/22 10:44:15;;;;;;;13.63;8.50;;;;;;;;;;5095972;28;20203;-83
2023/02/22 10:46:43;;;;;;;10.47;7.73;;;;;;;;;;5090270;28;20262;-83
2023/02/22 10:49:10;;;;;;;10.63;7.67;;;;;;;;;;5093426;28;20172;-83
2023/02/22 10:51:38;;;;;;;11.10;8.03;;;;;;;;;;5089583;28;20562;-85
2023/02/22 10:54:13;;;;;;;12.03;8.37;;;;;;;;;;5094742;28;20709;-84
2023/02/22 10:56:49;;;;;;;8.80;7.40;;;;;;;;;;5102300;28;20167;-85
2023/02/22 10:59:31;;;;;;;9.17;6.83;;;;;;;;;;5107841;28;20171;-85
2023/02/22 11:01:57;;;;;;;8.23;6.87;;;;;;;;;;5097651;28;20232;-83
2023/02/22 11:04:24;;;;;;;9.97;6.90;;;;;;;;;;5105525;28;20203;-84
2023/02/22 11:07:29;;;;;;;9.13;6.63;;;;;;;;;;5112550;28;20206;-84
2023/02/22 11:09:56;;;;;;;10.60;7.77;;;;;;;;;;4999139;28;20209;-83
2023/02/22 11:12:46;;;;;;;10.37;7.50;;;;;;;;;;4983372;28;20210;-84
2023/02/22 11:15:18;;;;;;;10.40;7.20;;;;;;;;;;5059540;28;20211;-84
2023/02/22 11:17:46;;;;;;;10.47;6.80;;;;;;;;;;5092913;28;20253;-85
2023/02/22 11:20:24;;;;;;;10.50;7.70;;;;;;;;;;5091167;28;20176;-83
2023/02/22 11:22:53;;;;;;;6.93;5.93;;;;;;;;;;5102442;28;20183;-84
2023/02/22 11:25:21;;;;;;;15.30;7.87;;;;;;;;;;5091806;28;20177;-83
2023/02/22 11:27:47;;;;;;;10.23;6.63;;;;;;;;;;5088125;28;20212;-83
2023/02/22 11:30:30;;;;;;;10.57;7.03;;;;;;;;;;5100024;28;20180;-83
2023/02/22 11:33:02;;;;;;;9.03;7.83;;;;;;;;;;5098572;28;20180;-84
2023/02/22 11:35:28;;;;;;;8.03;6.77;;;;;;;;;;5099099;28;20633;-84
2023/02/22 11:38:11;;;;;;;9.47;6.80;;;;;;;;;;5091220;28;20203;-84
2023/02/22 11:40:38;;;;;;;8.50;7.60;;;;;;;;;;5095365;28;20274;-84
2023/02/22 11:43:11;;;;;;;7.90;6.50;;;;;;;;;;5097133;28;20633;-84
2023/02/22 11:45:37;;;;;;;10.27;7.53;;;;;;;;;;5096551;28;20654;-85
2023/02/22 11:48:05;;;;;;;8.23;6.33;;;;;;;;;;5097295;28;20188;-83
2023/02/22 11:50:50;;;;;;;8.73;6.80;;;;;;;;;;5094286;28;20183;-84
2023/02/22 11:53:35;;;;;;;9.03;6.70;;;;;;;;;;5089123;28;20172;-84
2023/02/22 11:56:19;;;;;;;10.47;7.30;;;;;;;;;;5092510;28;20192;-84
2023/02/22 11:58:45;;;;;;;10.48;7.82;;;;;;;;;;5090067;28;20420;-84
2023/02/22 12:01:37;;;;;;;9.60;7.13;;;;;;;;;;5098173;28;20517;-84
2023/02/22 12:04:22;;;;;;;8.47;6.43;;;;;;;;;;5063869;28;20211;-84
2023/02/22 12:07:28;;;;;;;12.33;7.03;;;;;;;;;;5085656;28;20200;-84
2023/02/22 12:09:54;;;;;;;7.70;6.90;;;;;;;;;;4998432;28;20299;-84
2023/02/22 12:12:24;;;;;;;10.97;6.47;;;;;;;;;;4999669;28;20298;-85
2023/02/22 12:14:50;;;;;;;9.70;6.17;;;;;;;;;;5040273;28;20219;-85
2023/02/22 12:17:19;;;;;;;9.63;7.20;;;;;;;;;;5102646;28;20655;-85
2023/02/22 12:19:48;;;;;;;7.63;6.60;;;;;;;;;;5101481;28;20623;-84
2023/02/22 12:22:20;;;;;;;7.57;6.07;;;;;;;;;;5096104;28;20173;-86
2023/02/22 12:24:48;;;;;;;12.77;6.43;;;;;;;;;;5097618;28;21643;-85
2023/02/22 12:27:19;;;;;;;8.60;6.43;;;;;;;;;;5094723;28;20263;-85
2023/02/22 12:29:58;;;;;;;8.27;6.90;;;;;;;;;;5071861;28;20185;-86
2023/02/22 12:32:29;;;;;;;11.10;6.80;;;;;;;;;;5096947;28;20214;-85
2023/02/22 12:35:04;;;;;;;10.77;7.13;;;;;;;;;;5087426;28;20499;-85
2023/02/22 12:37:37;;;;;;;9.20;7.20;;;;;;;;;;5081902;28;20184;-84
2023/02/22 12:40:13;;;;;;;8.73;6.63;;;;;;;;;;5082959;28;20167;-85
2023/02/22 12:42:51;;;;;;;11.73;6.67;;;;;;;;;;5096552;28;20183;-84
2023/02/22 12:45:25;;;;;;;9.37;7.27;;;;;;;;;;5085130;28;20172;-84
2023/02/22 12:48:01;;;;;;;9.63;6.60;;;;;;;;;;5095437;28;20278;-85
2023/02/22 12:50:33;;;;;;;9.10;6.63;;;;;;;;;;5099879;28;20201;-84
2023/02/22 12:53:14;;;;;;;9.83;7.37;;;;;;;;;;5094574;28;20176;-84
2023/02/22 12:55:47;;;;;;;8.47;7.27;;;;;;;;;;5093603;28;20538;-84
2023/02/22 12:58:25;;;;;;;8.57;7.53;;;;;;;;;;5097708;28;20173;-84
2023/02/22 13:01:18;;;;;;;7.47;6.67;;;;;;;;;;5082212;28;20169;-83
2023/02/22 13:03:45;;;;;;;10.50;7.63;;;;;;;;;;5084953;28;20215;-84
2023/02/22 13:06:17;;;;;;;10.00;7.60;;;;;;;;;;5091540;28;20185;-82
2023/02/22 13:09:07;;;;;;;9.53;7.50;;;;;;;;;;5096023;28;20255;-83
2023/02/22 13:11:42;;;;;;;10.27;7.53;;;;;;;;;;5074120;28;20195;-82
2023/02/22 13:14:11;;;;;;;14.23;7.63;;;;;;;;;;5100196;28;20623;-83
2023/02/22 13:16:51;;;;;;;11.67;7.83;;;;;;;;;;5095271;28;20500;-83
2023/02/22 13:19:23;;;;;;;10.90;7.70;;;;;;;;;;5084017;28;20195;-83
2023/02/22 13:21:52;;;;;;;13.50;7.97;;;;;;;;;;5100938;28;20173;-83
2023/02/22 13:24:23;;;;;;;9.37;6.93;;;;;;;;;;5096438;28;20200;-83
2023/02/22 13:26:59;;;;;;;11.80;7.67;;;;;;;;;;5076671;28;20240;-83
2023/02/22 13:29:34;;;;;;;11.83;8.40;;;;;;;;;;5093251;28;20509;-84
2023/02/22 13:32:06;;;;;;;9.70;7.73;;;;;;;;;;5102854;28;20534;-83
2023/02/22 13:34:44;;;;;;;11.47;9.07;;;;;;;;;;5091486;28;20295;-83
2023/02/22 13:37:37;;;;;;;11.63;8.57;;;;;;;;;;5097437;28;20234;-83
2023/02/22 13:40:18;;;;;;;10.23;7.60;;;;;;;;;;5093667;28;20267;-83
2023/02/22 13:42:47;;;;;;;10.60;7.63;;;;;;;;;;5097677;28;20183;-84
2023/02/22 13:45:35;;;;;;;9.83;8.70;;;;;;;;;;5089446;28;20181;-83
2023/02/22 13:48:16;;;;;;;11.00;8.23;;;;;;;;;;5086312;28;20184;-84
2023/02/22 13:51:01;;;;;;;11.57;8.00;;;;;;;;;;5082006;28;20309;-83
2023/02/22 13:53:29;;;;;;;11.33;7.53;;;;;;;;;;5096490;28;20215;-84
2023/02/22 13:55:56;;;;;;;10.63;7.57;;;;;;;;;;5097749;28;20288;-84
2023/02/22 13:58:23;;;;;;;11.83;8.03;;;;;;;;;;5097056;28;20414;-83
2023/02/22 14:00:51;;;;;;;11.67;7.97;;;;;;;;;;5097968;28;20172;-83
2023/02/22 14:03:17;;;;;;;10.13;8.37;;;;;;;;;;5086211;28;20215;-83
2023/02/22 14:05:48;;;;;;;9.83;8.30;;;;;;;;;;5093716;28;20178;-83
2023/02/22 14:08:35;;;;;;;10.90;7.60;;;;;;;;;;5093492;28;20210;-83
2023/02/22 14:11:05;;;;;;;9.93;8.40;;;;;;;;;;5093356;28;20188;-83
2023/02/22 14:13:59;;;;;;;8.40;7.50;;;;;;;;;;5087563;28;20286;-83
2023/02/22 14:16:26;;;;;;;8.97;7.63;;;;;;;;;;5096207;28;20253;-83
2023/02/22 14:19:13;;;;;;;8.63;7.27;;;;;;;;;;5093138;28;20767;-83
2023/02/22 14:22:00;;;;;;;13.50;7.97;;;;;;;;;;5098748;28;20321;-82
2023/02/22 14:24:28;;;;;;;10.27;8.37;;;;;;;;;;5095873;28;20265;-83
2023/02/22 14:27:02;;;;;;;13.23;8.83;;;;;;;;;;5096947;28;20185;-84
2023/02/22 14:29:30;;;;;;;10.57;8.40;;;;;;;;;;5072698;28;20183;-83
2023/02/22 14:32:00;;;;;;;11.40;8.30;;;;;;;;;;5095671;28;20746;-83
2023/02/22 14:34:48;;;;;;;9.50;7.80;;;;;;;;;;5092317;28;20195;-84
2023/02/22 14:37:23;;;;;;;16.73;7.87;;;;;;;;;;5086677;28;20461;-83
2023/02/22 14:39:52;;;;;;;8.33;7.40;;;;;;;;;;5075301;28;20185;-83
2023/02/22 14:42:22;;;;;;;10.80;7.67;;;;;;;;;;5090280;28;20173;-84
2023/02/22 14:45:00;;;;;;;9.87;7.17;;;;;;;;;;5082384;28;20276;-84
2023/02/22 14:47:38;;;;;;;10.37;8.23;;;;;;;;;;5090491;28;20189;-83
2023/02/22 14:50:07;;;;;;;9.63;8.07;;;;;;;;;;5085203;28;20267;-83
2023/02/22 14:52:35;;;;;;;13.17;7.77;;;;;;;;;;5093838;28;20550;-83